Historyczne dane pomiarowe

Dodano dane terminowe – wersja testowa.

Dane z okresu 1951-2019

Wersja bazy: 1.34 [2019-03-16, lista zmian], aktualizacja planowana na 2019-04-15

Dane meteo z obszaru Polski uzyskane na podstawie danych udostępnionych przez Instytut Meteorologii i Gospodarki Wodnej – Państwowy Instytut Badawczy.

 

Wybierz Datę:    

       

TemperaturaWilgotnośćWiatrCiśnienieOpadyŚniegCzas trwania zjawisk
 Stacja t tx tn tng RH VA  wxwx mslp ppp RRR   cm mm wxwxwxwxwxwxwx
1956-11-09 -2.6 0.4 -4.2 -6.2 80.5- 2.7 1.3---- 0.0------------
1956-11-08 -1.7 3.4 -4.6 -6.5 83.3- 1.7 0.0---- 0.0------------
1956-11-07 0.4 2.9 -0.9 -0.7 85.5- 4.7 1.7---- 0.0------------
1956-11-06 1.0 4.3 -0.5 -1.7 87.3- 6.3 10.0---- 1.7-- 1---------
1956-11-05 4.3 7.7 1.9 0.3 84.0- 5.0 11.0---- 0.7------------
1956-11-04 1.8 4.8 -2.8 -4.8 82.8- 6.0 2.3---- 0.3------------
1956-11-03 0.4 4.1 -3.9 -5.3 79.0- 2.3 0.7---- 0.0------------
1956-11-02 0.7 2.8 -0.4 -0.7 92.8- 5.3 0.7---- 0.0------------
1956-11-01 -0.8 1.8 -6.9 -8.2 79.8- 6.3 3.0---- 0.0------------
1956-10-31 -5.3 -0.8 -7.0 -7.3 81.8- 0.0 4.0---- 0.0------------
1956-10-30 -0.4 5.0 -1.2 -0.1 90.5- 8.0 14.0---- 0.0------------
1956-10-29 4.8 8.0 4.5 4.2 89.3- 8.0 4.7---- 0.0------------
1956-10-28 8.3 9.4 7.7 8.4 93.5- 8.0 8.7---- 8.6------------
1956-10-27 8.3 9.4 6.1 5.4 96.0- 8.0 13.3---- 6.0------------
1956-10-26 6.8 10.1 6.4 6.9 89.3- 8.0 1.3---- 11.7------------
1956-10-25 11.0 14.1 9.3 7.8 86.3- 7.7 2.0---- 3.5------------
1956-10-24 11.9 15.7 7.9 5.8 89.5- 5.7 5.3---- 0.0------------
1956-10-23 9.6 12.5 8.0 8.7 82.5- 4.3 2.7---- 0.0------------
1956-10-22 11.3 13.5 8.9 7.4 93.8- 8.0 4.0---- 0.0------------
1956-10-21 12.1 17.0 10.0 7.7 82.5- 4.3 2.3---- 0.0------------
1956-10-20 10.3 13.0 7.1 5.8 90.0- 7.3 1.0---- 0.0------------
1956-10-19 11.0 14.2 8.8 10.4 87.8- 6.7 4.0---- 0.0------------
1956-10-18 11.5 14.2 7.2 4.7 87.3- 8.0 2.0---- 3.8------------
1956-10-17 8.4 15.8 2.2 0.8 75.5- 1.3 1.3---- 0.0------------
1956-10-16 4.8 14.2 -0.9 -1.7 80.3- 0.0 0.0---- 0.0------------
1956-10-15 4.5 12.5 1.0 0.1 88.3- 2.7 0.3---- 0.0------------
1956-10-14 6.8 12.4 3.8 5.7 76.8- 2.3 5.3---- 0.0------------
1956-10-13 11.2 12.5 8.1 6.2 83.3- 8.0 16.0---- 0.6------------
1956-10-12 8.7 12.3 7.9 7.4 88.5- 5.0 3.7---- 0.1------------
1956-10-11 8.0 10.9 2.4 0.8 83.8- 7.7 2.3---- 0.0------------
1956-10-10 4.6 10.2 -1.3 -2.5 77.5- 2.7 0.7---- 0.0------------
1956-10-09 6.4 8.1 3.0 1.4 93.3- 6.0 3.7---- 2.9------------
1956-10-08 4.6 7.9 0.9 0.0 82.5- 4.7 1.7---- 0.5------------
1956-10-07 5.6 9.4 3.6 4.8 78.0- 5.0 9.0---- 0.0------------
1956-10-06 6.4 7.9 4.4 4.1 89.8- 8.0 2.3---- 0.9------------
1956-10-05 7.2 12.9 4.2 6.3 89.8- 6.7 1.7---- 1.1------------
1956-10-04 10.3 14.5 6.3 4.8 83.3- 5.3 0.7---- 0.2------------
1956-10-03 12.4 16.9 8.2 10.9 86.8- 4.7 4.7---- 1.0------------
1956-10-02 16.9 24.1 10.1 8.1 81.8- 3.0 2.0---- 0.0------------
1956-10-01 15.4 23.3 7.9 6.2 83.3- 3.3 1.3---- 0.0------------
1956-09-30 10.6 17.3 7.8 8.5 88.0- 4.0 2.0---- 0.0------------
1956-09-29 13.8 16.5 11.5 13.7 85.5- 5.3 3.3---- 0.0------------
1956-09-28 15.6 18.9 12.5 10.2 80.0- 6.3 4.7---- 0.3------------
1956-09-27 16.5 22.6 10.7 8.2 73.5- 1.0 1.3---- 0.0------------
1956-09-26 15.1 22.9 8.8 6.7 74.3- 0.0 2.7---- 0.0------------
1956-09-25 12.4 21.3 3.8 2.2 82.8- 0.0 2.0---- 0.0------------
1956-09-24 10.0 16.4 4.5 3.1 68.8- 0.0 5.3---- 0.0------------
1956-09-23 12.0 18.6 7.0 4.8 84.0- 0.0 1.7---- 0.0------------
1956-09-22 12.0 19.4 5.1 3.6 80.5- 0.0 5.0---- 0.0------------
1956-09-21 10.2 18.9 3.9 2.8 84.3- 0.0 0.7---- 0.0------------
1956-09-20 9.4 17.4 4.2 3.0 82.8- 1.7 1.0---- 0.0------------
1956-09-19 8.6 17.4 2.2 1.7 87.5- 1.3 0.7---- 0.0------------
1956-09-18 8.2 15.5 3.7 2.3 89.0- 1.3 0.7---- 0.0------------
1956-09-17 8.2 14.1 5.9 8.0 84.8- 3.7 3.7---- 0.7------------
1956-09-16 10.5 14.4 5.1 3.7 77.8- 7.3 3.7---- 0.0------------
1956-09-15 10.2 15.9 8.0 5.8 82.8- 4.3 2.7---- 0.0------------
1956-09-14 10.5 17.0 4.9 8.7 86.8- 1.3 1.3---- 0.0------------
1956-09-13 9.5 13.4 8.0 6.9 81.8- 7.7 8.3---- 3.3------------
1956-09-12 11.5 14.7 8.5 12.7 85.5- 6.0 8.3---- 1.6------------
1956-09-11 14.4 18.3 13.0 12.7 95.5- 8.0 0.7---- 6.1------------
236.1 ms

 

Źródłem pochodzenia danych jest Instytut Meteorologii i Gospodarki Wodnej – Państwowy Instytut Badawczy. Dane Instytutu Meteorologii i Gospodarki Wodnej – Państwowego Instytutu Badawczego zostały przetworzone.

Dane źródłowe można odnaleźć na stronie https://dane.imgw.pl